Newark, OH (43058)

3:25 PM EDT on July 07, 2015 (GMT -0400)
Aerospace Center | | Change Station
CLOSE
Current Station
Personal Weather Station
Location: Heath, OH
Elevation: 903 ft
Nearby Weather Stations

Elev 903 ft 40.02 °N, 82.47 °W | Updated 1 minute ago

Mostly Cloudy
Mostly Cloudy
82.0 °F
Feels Like 87 °F
N
7.0
Wind Variable Wind from SSW
Gusts 13.0 mph

Today
High -- | Low -- °F
--% Chance of Precip.
Yesterday
High -- | Low -- °F
Precip. -- in
6:07 AM 9:01 PM
Waning Gibbous, 62% visible
Pressure 29.92 in
Visibility 10.0 miles
Clouds Few 3700 ft
Few 4600 ft
Mostly Cloudy 9500 ft
Heat Index 87 °F
Dew Point 72 °F
Humidity 73%
Rainfall 0.00 in
Snow Depth Not available.
UV 6 out of 12
Pollen 2.80 out of 12
Air Quality Not available.
Flu Activity Not available.
METAR KVTA 071854Z AUTO 22011KT 10SM FEW037 FEW046 BKN095 29/21 A2994 RMK AO2 SLP130 T02940211

More Conditions Fewer Conditions

Pressure 29.92 in
Visibility 10.0 miles
Clouds Few 3700 ft
Few 4600 ft
Mostly Cloudy 9500 ft
Heat Index 87 °F
Dew Point 72 °F
Humidity 73%
Rainfall 0.00 in
Snow Depth Not available.
UV 6 out of 12
Pollen 2.80 out of 12
Air Quality Not available.
Flu Activity Not available.
METAR KVTA 071854Z AUTO 22011KT 10SM FEW037 FEW046 BKN095 29/21 A2994 RMK AO2 SLP130 T02940211

More Conditions Fewer Conditions

10-Day Weather Forecast

×

Almanac

Astronomy

Jul. 07, 2015 Rise Set
Actual Time
Civil Twilight
Nautical Twilight
Astronomical Twilight
Moon
Length of Visible Light
Length of Day
Tomorrow will be .
, % of the Moon is Illuminated

Today's Extremes

State Highs State Lows

Community

WunderPhotos

Upload Photos

1,835,877 photos uploaded!

WunderBlogs® & News

Nearby

Air Quality

  Air Quality AQ Index Pollutant
Not available.

Snow Depth

Station Depth Elevation

Earthquake Activity

City Distance Mag. Time & Date
Minimum magnitude displayed is 2.5.

Coastal Water Temperatures

Place Temperature

Stations

Nearby Weather Stations

Station Location Temp. Windchill Dew Point Humidity Wind Precip. Elev Updated Type